createdAt,value
2018-09-03T00:01:56.383Z,8.50
2018-09-03T00:04:24.008Z,8.97
2018-09-03T00:06:51.472Z,8.87
2018-09-03T00:09:19.616Z,9.77
2018-09-03T00:11:47.540Z,9.13
2018-09-03T00:14:15.002Z,10.00
2018-09-03T00:16:42.471Z,10.50
2018-09-03T00:19:09.995Z,9.87
2018-09-03T00:21:37.468Z,10.40
2018-09-03T00:24:04.920Z,10.80
2018-09-03T00:26:32.393Z,11.57
2018-09-03T00:28:59.986Z,10.33
2018-09-03T00:31:33.244Z,9.97
2018-09-03T00:34:06.512Z,11.60
2018-09-03T00:36:39.509Z,10.63
2018-09-03T00:39:12.740Z,12.27
2018-09-03T00:41:45.975Z,12.23
2018-09-03T00:44:18.944Z,10.80
2018-09-03T00:46:52.006Z,11.20
2018-09-03T00:49:19.960Z,10.97
2018-09-03T00:51:47.415Z,10.97
2018-09-03T00:54:14.892Z,11.90
2018-09-03T00:56:42.377Z,12.90
2018-09-03T00:59:09.863Z,10.90
2018-09-03T01:01:37.518Z,11.30
2018-09-03T01:04:05.004Z,12.60
2018-09-03T01:06:32.456Z,17.83
2018-09-03T01:09:04.655Z,12.70
2018-09-03T01:11:32.135Z,12.13
2018-09-03T01:13:59.667Z,15.80
2018-09-03T01:16:27.128Z,12.83
2018-09-03T01:18:55.351Z,13.17
2018-09-03T01:21:23.403Z,12.73
2018-09-03T01:23:51.076Z,12.17
2018-09-03T01:26:18.605Z,13.07
2018-09-03T01:28:46.081Z,13.27
2018-09-03T01:31:18.004Z,15.07
2018-09-03T01:33:46.567Z,13.43
2018-09-03T01:36:14.092Z,14.50
2018-09-03T01:38:41.600Z,13.20
2018-09-03T01:41:09.064Z,12.00
2018-09-03T01:43:36.838Z,13.77
2018-09-03T01:46:04.308Z,13.40
2018-09-03T01:48:31.796Z,13.80
2018-09-03T01:50:59.284Z,13.40
2018-09-03T01:53:26.744Z,12.60
2018-09-03T01:55:54.263Z,15.27
2018-09-03T01:58:21.724Z,12.77
2018-09-03T02:00:49.194Z,15.20
2018-09-03T02:03:16.948Z,13.30
2018-09-03T02:05:44.493Z,14.93
2018-09-03T02:08:12.012Z,15.17
2018-09-03T02:10:40.023Z,14.33
2018-09-03T02:13:07.471Z,13.10
2018-09-03T02:15:35.060Z,17.93
2018-09-03T02:18:02.536Z,12.93
2018-09-03T02:20:30.004Z,13.80
2018-09-03T02:22:57.552Z,14.40
2018-09-03T02:25:24.992Z,14.73
2018-09-03T02:27:52.452Z,13.53
2018-09-03T02:30:20.368Z,15.67
2018-09-03T02:32:47.843Z,14.10
2018-09-03T02:35:15.507Z,14.80
2018-09-03T02:37:42.987Z,14.07
2018-09-03T02:40:10.550Z,16.67
2018-09-03T02:42:38.120Z,15.30
2018-09-03T02:45:06.733Z,16.00
2018-09-03T02:47:34.249Z,15.73
2018-09-03T02:50:02.190Z,15.27
2018-09-03T02:52:29.674Z,16.70
2018-09-03T02:54:57.125Z,16.43
2018-09-03T02:57:24.649Z,17.20
2018-09-03T02:59:52.152Z,17.07
2018-09-03T03:02:19.657Z,18.63
2018-09-03T03:04:47.150Z,16.50
2018-09-03T03:07:14.607Z,16.37
2018-09-03T03:09:42.379Z,17.17
2018-09-03T03:12:09.869Z,17.50
2018-09-03T03:14:37.345Z,15.37
2018-09-03T03:17:05.378Z,20.07
2018-09-03T03:19:32.956Z,17.70
2018-09-03T03:22:00.437Z,18.20
2018-09-03T03:24:27.892Z,20.67
2018-09-03T03:26:55.396Z,17.30
2018-09-03T03:29:22.911Z,15.27
2018-09-03T03:31:50.380Z,16.57
2018-09-03T03:34:17.873Z,17.23
2018-09-03T03:36:45.343Z,17.83
2018-09-03T03:39:12.838Z,18.57
2018-09-03T03:41:41.115Z,20.70
2018-09-03T03:44:08.888Z,16.50
2018-09-03T03:46:36.394Z,17.53
2018-09-03T03:49:04.137Z,20.47
2018-09-03T03:51:31.782Z,16.27
2018-09-03T03:53:59.292Z,16.73
2018-09-03T03:56:26.815Z,17.60
2018-09-03T03:58:54.441Z,18.00
2018-09-03T04:01:21.891Z,16.70
2018-09-03T04:03:49.359Z,16.43
2018-09-03T04:06:16.896Z,18.57
2018-09-03T04:08:44.340Z,17.30
2018-09-03T04:11:11.780Z,13.93
2018-09-03T04:13:39.316Z,17.03
2018-09-03T04:16:06.925Z,16.20
2018-09-03T04:18:34.460Z,17.50
2018-09-03T04:21:02.317Z,19.20
2018-09-03T04:23:30.048Z,16.50
2018-09-03T04:25:57.525Z,18.53
2018-09-03T04:28:25.008Z,17.60
2018-09-03T04:30:52.460Z,15.57
2018-09-03T04:33:20.028Z,15.40
2018-09-03T04:35:47.667Z,15.33
2018-09-03T04:38:15.211Z,18.23
2018-09-03T04:40:42.851Z,20.37
2018-09-03T04:43:10.301Z,16.77
2018-09-03T04:45:37.816Z,18.43
2018-09-03T04:48:05.404Z,18.13
2018-09-03T04:50:32.832Z,16.60
2018-09-03T04:53:01.190Z,18.37
2018-09-03T04:55:28.749Z,19.43
2018-09-03T04:57:56.408Z,17.40
2018-09-03T05:00:24.108Z,16.10
2018-09-03T05:02:51.597Z,17.63
2018-09-03T05:05:19.281Z,19.63
2018-09-03T05:07:46.793Z,20.20
2018-09-03T05:10:14.519Z,16.23
2018-09-03T05:12:42.089Z,18.27
2018-09-03T05:15:09.653Z,20.77
2018-09-03T05:17:37.295Z,15.83
2018-09-03T05:20:05.113Z,21.40
2018-09-03T05:22:32.673Z,17.97
2018-09-03T05:25:00.360Z,18.93
2018-09-03T05:27:27.901Z,17.27
2018-09-03T05:29:55.474Z,15.50
2018-09-03T05:32:23.173Z,18.97
2018-09-03T05:34:50.737Z,18.87
2018-09-03T05:37:18.215Z,14.40
2018-09-03T05:39:45.799Z,19.10
2018-09-03T05:42:13.313Z,18.37
2018-09-03T05:44:40.842Z,19.00
2018-09-03T05:47:08.421Z,20.50
2018-09-03T05:49:35.945Z,18.93
2018-09-03T05:52:03.419Z,18.80
2018-09-03T05:54:30.928Z,18.70
2018-09-03T05:56:58.552Z,18.73
2018-09-03T05:59:26.167Z,21.03
2018-09-03T06:01:53.765Z,20.00
2018-09-03T06:04:21.316Z,19.23
2018-09-03T06:06:48.800Z,18.93
2018-09-03T06:09:16.585Z,19.97
2018-09-03T06:11:44.110Z,17.33
2018-09-03T06:14:11.617Z,20.23
2018-09-03T06:16:39.235Z,16.70
2018-09-03T06:19:06.719Z,16.20
2018-09-03T06:21:34.614Z,16.20
2018-09-03T06:24:02.313Z,14.33
2018-09-03T06:26:29.904Z,15.60
2018-09-03T06:28:57.421Z,14.67
2018-09-03T06:31:24.940Z,13.70
2018-09-03T06:33:52.625Z,14.07
2018-09-03T06:36:20.104Z,15.40
2018-09-03T06:38:48.043Z,15.03
2018-09-03T06:41:18.177Z,15.03
2018-09-03T06:43:46.125Z,16.07
2018-09-03T06:46:13.691Z,19.03
2018-09-03T06:48:41.179Z,16.30
2018-09-03T06:51:08.711Z,14.37
2018-09-03T06:53:36.721Z,16.17
2018-09-03T06:56:04.209Z,19.57
2018-09-03T06:58:31.837Z,16.13
2018-09-03T07:00:59.456Z,14.53
2018-09-03T07:03:26.917Z,15.03
2018-09-03T07:05:54.404Z,14.63
2018-09-03T07:08:21.896Z,15.60
2018-09-03T07:10:49.381Z,14.23
2018-09-03T07:13:16.851Z,14.80
2018-09-03T07:15:44.294Z,14.80
2018-09-03T07:18:11.853Z,15.53
2018-09-03T07:20:39.356Z,15.23
2018-09-03T07:23:06.849Z,14.73
2018-09-03T07:25:34.330Z,14.07
2018-09-03T07:28:04.658Z,14.10
2018-09-03T07:30:32.394Z,12.60
2018-09-03T07:33:00.093Z,12.80
2018-09-03T07:35:27.602Z,13.90
2018-09-03T07:37:55.101Z,15.47
2018-09-03T07:40:22.563Z,13.40
2018-09-03T07:42:50.159Z,14.13
2018-09-03T07:45:17.698Z,14.50
2018-09-03T07:47:45.173Z,13.10
2018-09-03T07:50:12.688Z,14.10
2018-09-03T07:52:40.156Z,12.80
2018-09-03T07:55:07.719Z,13.40
2018-09-03T07:57:35.236Z,12.27
2018-09-03T08:00:03.128Z,12.53
2018-09-03T08:02:30.601Z,13.20
2018-09-03T08:04:58.081Z,12.83
2018-09-03T08:07:25.671Z,13.23
2018-09-03T08:09:53.065Z,13.33
2018-09-03T08:12:20.672Z,13.00
2018-09-03T08:14:48.123Z,12.90
2018-09-03T08:17:15.640Z,15.17
2018-09-03T08:19:43.913Z,13.53
2018-09-03T08:22:11.421Z,12.60
2018-09-03T08:24:38.953Z,13.93
2018-09-03T08:27:06.539Z,13.00
2018-09-03T08:29:34.065Z,14.20
2018-09-03T08:32:01.762Z,13.60
2018-09-03T08:34:29.239Z,11.70
2018-09-03T08:36:57.516Z,14.67
2018-09-03T08:39:25.037Z,13.03
2018-09-03T08:41:52.509Z,12.60
2018-09-03T08:44:20.115Z,14.40
2018-09-03T08:46:47.624Z,12.63
2018-09-03T08:49:15.242Z,13.97
2018-09-03T08:51:43.942Z,11.80
2018-09-03T08:54:11.477Z,13.70
2018-09-03T08:56:39.120Z,12.10
2018-09-03T08:59:06.559Z,13.33
2018-09-03T09:01:34.064Z,12.43
2018-09-03T09:04:01.640Z,11.37
2018-09-03T09:06:29.266Z,15.00
2018-09-03T09:08:56.822Z,12.30
2018-09-03T09:11:24.319Z,12.30
2018-09-03T09:13:51.878Z,11.90
2018-09-03T09:16:19.480Z,14.20
2018-09-03T09:18:46.972Z,12.60
2018-09-03T09:21:14.580Z,12.00
2018-09-03T09:23:42.752Z,11.77
2018-09-03T09:26:10.312Z,13.17
2018-09-03T09:28:38.193Z,11.87
2018-09-03T09:31:06.004Z,14.07
2018-09-03T09:33:33.803Z,13.97
2018-09-03T09:36:01.878Z,14.97
2018-09-03T09:38:29.357Z,14.83
2018-09-03T09:40:57.003Z,13.53
2018-09-03T09:43:24.508Z,11.93
2018-09-03T09:45:51.998Z,13.40
2018-09-03T09:48:19.597Z,13.00
2018-09-03T09:50:49.991Z,12.63
2018-09-03T09:53:18.307Z,12.13
2018-09-03T09:55:45.736Z,14.40
2018-09-03T09:58:13.217Z,14.80
2018-09-03T10:00:46.332Z,14.30
2018-09-03T10:03:13.804Z,14.07
2018-09-03T10:05:41.316Z,14.40
2018-09-03T10:08:08.794Z,14.60
2018-09-03T10:10:36.271Z,12.50
2018-09-03T10:13:03.903Z,13.63
2018-09-03T10:15:31.423Z,12.93
2018-09-03T10:17:58.922Z,15.20
2018-09-03T10:20:26.404Z,15.27
2018-09-03T10:22:53.856Z,16.40
2018-09-03T10:25:21.597Z,13.00
2018-09-03T10:27:49.088Z,13.53
2018-09-03T10:30:16.589Z,15.10
2018-09-03T10:32:44.254Z,14.20
2018-09-03T10:35:11.892Z,15.00
2018-09-03T10:37:39.449Z,15.47
2018-09-03T10:40:07.427Z,16.23
2018-09-03T10:42:41.752Z,16.03
2018-09-03T10:45:09.323Z,16.13
2018-09-03T10:47:36.946Z,16.10
2018-09-03T10:50:05.009Z,17.07
2018-09-03T10:52:32.532Z,16.20
2018-09-03T10:55:00.164Z,16.10
2018-09-03T10:57:28.102Z,17.50
2018-09-03T10:59:55.780Z,16.83
2018-09-03T11:02:23.447Z,17.87
2018-09-03T11:04:50.912Z,16.63
2018-09-03T11:07:18.486Z,18.43
2018-09-03T11:09:46.145Z,18.43
2018-09-03T11:12:13.780Z,18.30
2018-09-03T11:14:41.432Z,16.90
2018-09-03T11:17:08.935Z,17.63
2018-09-03T11:19:40.052Z,17.23
2018-09-03T11:22:07.749Z,16.53
2018-09-03T11:24:35.314Z,17.30
2018-09-03T11:27:03.038Z,20.33
2018-09-03T11:29:30.884Z,18.57
2018-09-03T11:31:58.583Z,17.60
2018-09-03T11:34:26.101Z,15.70
2018-09-03T11:36:53.824Z,17.30
2018-09-03T11:39:21.601Z,17.83
2018-09-03T11:41:49.232Z,16.80
2018-09-03T11:44:17.107Z,16.30
2018-09-03T11:46:44.664Z,16.60
2018-09-03T11:49:12.197Z,17.47
2018-09-03T11:51:39.743Z,16.90
2018-09-03T11:54:07.415Z,17.70
2018-09-03T11:56:34.981Z,17.73
2018-09-03T11:59:02.600Z,17.30
2018-09-03T12:01:30.134Z,18.57
2018-09-03T12:03:57.676Z,17.10
2018-09-03T12:06:25.255Z,15.70
2018-09-03T12:08:52.808Z,18.07
2018-09-03T12:11:20.486Z,15.50
2018-09-03T12:13:48.028Z,14.17
2018-09-03T12:16:18.580Z,15.60
2018-09-03T12:18:46.517Z,15.97
2018-09-03T12:21:14.567Z,16.50
2018-09-03T12:23:43.152Z,16.57
2018-09-03T12:26:10.764Z,16.03
2018-09-03T12:28:38.350Z,16.63
2018-09-03T12:31:06.365Z,15.90
2018-09-03T12:33:34.041Z,16.93
2018-09-03T12:36:01.964Z,17.90
2018-09-03T12:38:29.602Z,16.63
2018-09-03T12:40:58.605Z,15.37
2018-09-03T12:43:26.314Z,15.93
2018-09-03T12:45:59.474Z,16.67
2018-09-03T12:48:27.478Z,15.40
2018-09-03T12:50:55.026Z,15.27
2018-09-03T12:53:22.672Z,15.50
2018-09-03T12:55:50.176Z,16.30
2018-09-03T12:58:17.734Z,14.50
2018-09-03T13:00:45.335Z,13.80
2018-09-03T13:03:13.188Z,15.77
2018-09-03T13:05:40.664Z,14.40
2018-09-03T13:08:08.149Z,15.17
2018-09-03T13:10:35.797Z,14.70
2018-09-03T13:13:03.549Z,14.50
2018-09-03T13:15:31.113Z,14.37
2018-09-03T13:17:58.703Z,13.63
2018-09-03T13:20:26.131Z,13.80
2018-09-03T13:22:53.628Z,16.10
2018-09-03T13:25:21.044Z,14.43
2018-09-03T13:27:48.532Z,15.27
2018-09-03T13:30:16.796Z,14.23
2018-09-03T13:32:44.250Z,15.67
2018-09-03T13:37:45.924Z,13.87
2018-09-03T13:40:13.394Z,13.67
2018-09-03T13:42:40.824Z,15.10
2018-09-03T13:45:08.273Z,15.07
2018-09-03T13:47:35.669Z,14.73
2018-09-03T13:50:03.776Z,13.53
2018-09-03T13:52:31.245Z,13.97
2018-09-03T13:54:58.886Z,13.97
2018-09-03T13:57:26.319Z,13.63
2018-09-03T13:59:53.785Z,14.00
2018-09-03T14:02:21.306Z,13.87
2018-09-03T14:04:48.836Z,14.30
2018-09-03T14:07:16.363Z,14.30
2018-09-03T14:09:45.009Z,16.07
2018-09-03T14:12:12.623Z,16.17
2018-09-03T14:14:40.167Z,15.67
2018-09-03T14:17:07.831Z,13.60
2018-09-03T14:19:35.314Z,14.27
2018-09-03T14:22:02.753Z,14.53
2018-09-03T14:24:30.333Z,15.90
2018-09-03T14:26:57.916Z,14.57
2018-09-03T14:29:25.432Z,14.80
2018-09-03T14:31:52.972Z,15.53
2018-09-03T14:34:20.580Z,14.73
2018-09-03T14:36:48.220Z,15.30
2018-09-03T14:39:15.636Z,15.70
2018-09-03T14:41:43.528Z,15.33
2018-09-03T14:44:11.435Z,17.27
2018-09-03T14:46:38.957Z,14.43
2018-09-03T14:49:07.184Z,15.40
2018-09-03T14:51:34.645Z,13.50
2018-09-03T14:54:02.165Z,14.90
2018-09-03T14:56:29.668Z,14.07
2018-09-03T14:58:57.427Z,14.53
2018-09-03T15:01:25.020Z,15.80
2018-09-03T15:03:52.603Z,14.00
2018-09-03T15:06:20.129Z,13.90
2018-09-03T15:08:47.737Z,13.90
2018-09-03T15:11:15.319Z,13.93
2018-09-03T15:13:42.889Z,13.53
2018-09-03T15:16:10.586Z,13.50
2018-09-03T15:18:38.248Z,14.37
2018-09-03T15:21:05.727Z,13.50
2018-09-03T15:23:33.179Z,14.80
2018-09-03T15:26:01.143Z,13.47
2018-09-03T15:28:28.560Z,14.63
2018-09-03T15:30:56.092Z,13.80
2018-09-03T15:33:23.572Z,14.30
2018-09-03T15:35:51.049Z,12.47
2018-09-03T15:38:18.565Z,13.73
2018-09-03T15:40:46.198Z,14.83
2018-09-03T15:43:13.729Z,13.30
2018-09-03T15:45:41.232Z,14.00
2018-09-03T15:48:08.720Z,14.20
2018-09-03T15:50:36.168Z,15.10
2018-09-03T15:53:03.728Z,13.77
2018-09-03T15:55:31.255Z,15.80
2018-09-03T15:57:58.779Z,13.70
2018-09-03T16:00:26.275Z,14.00
2018-09-03T16:02:53.754Z,12.27
2018-09-03T16:05:21.172Z,13.83
2018-09-03T16:07:48.683Z,12.60
2018-09-03T16:10:16.492Z,14.40
2018-09-03T16:12:44.025Z,12.67
2018-09-03T16:15:11.488Z,13.07
2018-09-03T16:17:45.628Z,13.43
2018-09-03T16:20:13.188Z,13.70
2018-09-03T16:22:40.644Z,12.97
2018-09-03T16:25:08.216Z,14.07
2018-09-03T16:27:35.723Z,16.40
2018-09-03T16:30:03.272Z,13.93
2018-09-03T16:32:30.775Z,14.07
2018-09-03T16:34:58.325Z,13.33
2018-09-03T16:37:25.832Z,12.27
2018-09-03T16:39:53.324Z,13.90
2018-09-03T16:42:20.907Z,14.07
2018-09-03T16:44:48.473Z,11.73
2018-09-03T16:47:15.945Z,13.10
2018-09-03T16:49:43.471Z,15.10
2018-09-03T16:52:11.368Z,15.23
2018-09-03T16:54:40.780Z,13.73
2018-09-03T16:57:08.920Z,14.67
2018-09-03T16:59:36.691Z,15.00
2018-09-03T17:02:04.607Z,15.80
2018-09-03T17:04:35.025Z,15.27
2018-09-03T17:07:02.772Z,15.87
2018-09-03T17:09:30.693Z,15.30
2018-09-03T17:11:58.416Z,16.30
2018-09-03T17:14:26.222Z,16.53
2018-09-03T17:16:53.797Z,14.73
2018-09-03T17:19:21.310Z,16.20
2018-09-03T17:21:48.823Z,14.20
2018-09-03T17:24:16.271Z,14.37
2018-09-03T17:26:44.639Z,14.83
2018-09-03T17:29:12.631Z,16.13
2018-09-03T17:31:40.188Z,14.93
2018-09-03T17:34:07.695Z,16.50
2018-09-03T17:36:35.846Z,16.57
2018-09-03T17:39:05.096Z,15.43
2018-09-03T17:41:33.090Z,15.00
2018-09-03T17:44:02.256Z,20.10
2018-09-03T17:46:29.967Z,17.33
2018-09-03T17:49:00.468Z,18.73
2018-09-03T17:51:28.088Z,18.13
2018-09-03T17:53:55.826Z,15.37
2018-09-03T17:56:23.804Z,17.77
2018-09-03T17:58:51.727Z,16.30
2018-09-03T18:01:20.397Z,21.07
2018-09-03T18:03:48.172Z,18.27
2018-09-03T18:06:15.720Z,17.20
2018-09-03T18:08:43.525Z,15.70
2018-09-03T18:11:11.062Z,16.80
2018-09-03T18:13:38.926Z,16.00
2018-09-03T18:16:06.483Z,16.97
2018-09-03T18:18:34.335Z,20.87
2018-09-03T18:21:03.121Z,19.07
2018-09-03T18:23:32.054Z,20.20
2018-09-03T18:25:59.860Z,21.07
2018-09-03T18:28:27.453Z,20.47
2018-09-03T18:30:55.108Z,20.57
2018-09-03T18:33:22.717Z,19.53
2018-09-03T18:35:50.341Z,18.20
2018-09-03T18:38:18.045Z,18.17
2018-09-03T18:40:45.558Z,18.30
2018-09-03T18:43:13.105Z,18.27
2018-09-03T18:45:40.649Z,20.17
2018-09-03T18:48:08.875Z,19.13
2018-09-03T18:50:36.536Z,20.20
2018-09-03T18:53:04.324Z,19.50
2018-09-03T18:55:31.969Z,19.70
2018-09-03T18:57:59.597Z,19.43
2018-09-03T19:00:27.241Z,19.27
2018-09-03T19:02:54.694Z,19.60
2018-09-03T19:05:22.237Z,20.77
2018-09-03T19:07:49.842Z,20.47
2018-09-03T19:10:17.386Z,18.27
2018-09-03T19:12:44.878Z,18.47
2018-09-03T19:15:12.553Z,19.77
2018-09-03T19:17:40.121Z,20.13
2018-09-03T19:20:07.930Z,19.20
2018-09-03T19:22:35.633Z,19.13
2018-09-03T19:25:03.381Z,19.07
2018-09-03T19:27:30.967Z,19.70
2018-09-03T19:29:58.744Z,21.57
2018-09-03T19:32:26.243Z,20.07
2018-09-03T19:34:53.791Z,21.77
2018-09-03T19:37:21.364Z,20.30
2018-09-03T19:39:48.988Z,21.33
2018-09-03T19:42:16.666Z,20.93
2018-09-03T19:44:44.645Z,21.60
2018-09-03T19:47:12.210Z,21.03
2018-09-03T19:49:39.793Z,20.60
2018-09-03T19:52:07.420Z,20.23
2018-09-03T19:54:35.003Z,22.07
2018-09-03T19:57:02.561Z,21.00
2018-09-03T19:59:30.387Z,19.90
2018-09-03T20:01:58.159Z,21.00
2018-09-03T20:04:25.837Z,21.30
2018-09-03T20:06:53.412Z,22.77
2018-09-03T20:09:21.186Z,18.80
2018-09-03T20:11:48.808Z,20.97
2018-09-03T20:14:16.374Z,19.03
2018-09-03T20:16:43.949Z,18.93
2018-09-03T20:19:11.601Z,18.27
2018-09-03T20:21:39.253Z,18.67
2018-09-03T20:24:06.905Z,18.27
2018-09-03T20:26:34.522Z,25.37
2018-09-03T20:29:02.117Z,18.70
2018-09-03T20:31:29.784Z,19.50
2018-09-03T20:33:57.391Z,18.30
2018-09-03T20:36:25.504Z,18.53
2018-09-03T20:38:53.172Z,19.00
2018-09-03T20:41:20.797Z,17.37
2018-09-03T20:43:48.494Z,18.10
2018-09-03T20:46:16.262Z,17.50
2018-09-03T20:48:43.906Z,18.43
2018-09-03T20:51:11.483Z,17.10
2018-09-03T20:53:39.202Z,16.83
2018-09-03T20:56:07.090Z,17.17
2018-09-03T20:58:34.748Z,16.27
2018-09-03T21:01:02.703Z,16.33
2018-09-03T21:03:30.274Z,16.30
2018-09-03T21:05:57.976Z,16.93
2018-09-03T21:08:25.614Z,16.30
2018-09-03T21:10:53.172Z,16.53
2018-09-03T21:13:20.771Z,18.00
2018-09-03T21:15:48.529Z,18.10
2018-09-03T21:18:16.699Z,16.53
2018-09-03T21:20:44.375Z,16.10
2018-09-03T21:23:12.876Z,14.90
2018-09-03T21:25:40.572Z,16.93
2018-09-03T21:28:08.146Z,17.23
2018-09-03T21:30:35.712Z,17.17
2018-09-03T21:33:03.320Z,16.30
2018-09-03T21:35:31.991Z,14.97
2018-09-03T21:37:59.646Z,15.50
2018-09-03T21:40:27.228Z,15.47
2018-09-03T21:42:54.809Z,15.70
2018-09-03T21:45:22.395Z,15.17
2018-09-03T21:47:49.938Z,14.40
2018-09-03T21:50:17.498Z,15.93
2018-09-03T21:52:45.852Z,15.17
2018-09-03T21:55:13.470Z,16.33
2018-09-03T21:57:41.063Z,15.13
2018-09-03T22:00:09.526Z,15.70
2018-09-03T22:02:37.102Z,16.07
2018-09-03T22:05:05.059Z,16.57
2018-09-03T22:07:32.771Z,16.50
2018-09-03T22:10:00.459Z,17.97
2018-09-03T22:12:28.046Z,16.63
2018-09-03T22:14:55.625Z,15.63
2018-09-03T22:17:23.242Z,18.27
2018-09-03T22:19:50.855Z,16.63
2018-09-03T22:22:18.418Z,15.30
2018-09-03T22:24:46.546Z,15.53
2018-09-03T22:27:14.126Z,16.70
2018-09-03T22:29:42.069Z,15.63
2018-09-03T22:32:09.655Z,15.73
2018-09-03T22:34:37.262Z,16.63
2018-09-03T22:37:04.865Z,16.50
2018-09-03T22:39:32.438Z,15.80
2018-09-03T22:42:00.198Z,16.63
2018-09-03T22:44:27.759Z,16.00
2018-09-03T22:46:55.406Z,15.30
2018-09-03T22:49:23.162Z,16.10
2018-09-03T22:51:50.705Z,16.43
2018-09-03T22:54:18.261Z,15.73
2018-09-03T22:56:45.811Z,16.20
2018-09-03T22:59:13.360Z,17.73
2018-09-03T23:01:40.930Z,16.77
2018-09-03T23:04:08.491Z,16.40
2018-09-03T23:06:36.078Z,15.70
2018-09-03T23:09:04.903Z,17.00
2018-09-03T23:11:33.423Z,16.20
2018-09-03T23:14:01.070Z,17.47
2018-09-03T23:16:28.622Z,16.53
2018-09-03T23:18:56.191Z,15.90
2018-09-03T23:21:23.852Z,17.07
2018-09-03T23:23:51.753Z,19.57
2018-09-03T23:26:19.326Z,17.10
2018-09-03T23:28:47.547Z,15.60
2018-09-03T23:31:15.504Z,17.10
2018-09-03T23:33:43.160Z,15.83
2018-09-03T23:36:10.859Z,16.97
2018-09-03T23:38:38.531Z,17.53
2018-09-03T23:41:06.263Z,16.10
2018-09-03T23:43:34.147Z,15.90
2018-09-03T23:46:01.818Z,15.60
2018-09-03T23:48:29.551Z,15.50
2018-09-03T23:50:57.865Z,15.73
2018-09-03T23:53:25.579Z,16.10
2018-09-03T23:55:53.659Z,16.40
2018-09-03T23:58:21.399Z,17.23
